Time;durP1;ratioP1;P1;durP2;ratioP2;P2;SDS_P1;SDS_P2;PMS_P1;PMS_P2;Temp;Humidity;BMP_temperature;BMP_pressure;BME280_temperature;BME280_humidity;BME280_pressure;Samples;Min_cycle;Max_cycle;Signal;HPM_P1;HPM_P2
2023/05/13 00:00:25;;;;;;;11.57;10.43;;;;;;;;;;5051637;28;20212;-63
2023/05/13 00:03:07;;;;;;;11.33;10.13;;;;;;;;;;5058153;28;20233;-65
2023/05/13 00:05:41;;;;;;;12.47;11.27;;;;;;;;;;5058495;28;20210;-64
2023/05/13 00:08:11;;;;;;;13.13;11.20;;;;;;;;;;5055074;28;20225;-65
2023/05/13 00:10:39;;;;;;;12.00;10.90;;;;;;;;;;5053566;28;20206;-63
2023/05/13 00:13:12;;;;;;;11.27;10.27;;;;;;;;;;5056393;28;20656;-64
2023/05/13 00:15:42;;;;;;;12.10;10.90;;;;;;;;;;5058268;28;20320;-63
2023/05/13 00:18:23;;;;;;;12.37;11.13;;;;;;;;;;5057097;28;20652;-65
2023/05/13 00:21:04;;;;;;;12.83;11.53;;;;;;;;;;5054328;28;20287;-66
2023/05/13 00:23:46;;;;;;;13.07;11.63;;;;;;;;;;5048964;28;20282;-64
2023/05/13 00:26:15;;;;;;;13.17;11.10;;;;;;;;;;5050247;28;20209;-63
2023/05/13 00:28:43;;;;;;;12.83;11.50;;;;;;;;;;5055931;28;20210;-64
2023/05/13 00:31:10;;;;;;;12.00;10.83;;;;;;;;;;5047813;28;20210;-64
2023/05/13 00:33:38;;;;;;;12.17;11.07;;;;;;;;;;5058820;28;20353;-64
2023/05/13 00:36:08;;;;;;;13.07;11.80;;;;;;;;;;5056570;28;20221;-63
2023/05/13 00:38:36;;;;;;;12.93;11.63;;;;;;;;;;5055259;28;20224;-65
2023/05/13 00:41:06;;;;;;;13.20;11.17;;;;;;;;;;5050849;28;20308;-64
2023/05/13 00:43:41;;;;;;;14.20;11.90;;;;;;;;;;5069446;28;20222;-63
2023/05/13 00:46:10;;;;;;;14.57;12.63;;;;;;;;;;5071159;28;20260;-64
2023/05/13 00:48:41;;;;;;;12.47;11.27;;;;;;;;;;5052605;28;20208;-65
2023/05/13 00:51:12;;;;;;;14.03;12.53;;;;;;;;;;5061482;28;21102;-65
2023/05/13 00:53:48;;;;;;;13.00;11.60;;;;;;;;;;5049750;28;20198;-65
2023/05/13 00:56:29;;;;;;;13.17;11.97;;;;;;;;;;5049465;28;20240;-64
2023/05/13 00:58:58;;;;;;;13.80;11.83;;;;;;;;;;5056856;28;20729;-64
2023/05/13 01:01:28;;;;;;;12.37;11.27;;;;;;;;;;5053347;28;20284;-64
2023/05/13 01:04:27;;;;;;;12.63;11.43;;;;;;;;;;5056330;28;20297;-64
2023/05/13 01:07:14;;;;;;;11.90;10.70;;;;;;;;;;4972175;28;20809;-65
2023/05/13 01:09:56;;;;;;;13.07;11.70;;;;;;;;;;5053780;28;20216;-64
2023/05/13 01:12:30;;;;;;;12.10;10.90;;;;;;;;;;5050888;28;20290;-63
2023/05/13 01:15:09;;;;;;;12.27;11.07;;;;;;;;;;5055359;28;20225;-64
2023/05/13 01:17:53;;;;;;;13.33;11.37;;;;;;;;;;5055665;28;20324;-63
2023/05/13 01:20:27;;;;;;;11.40;10.30;;;;;;;;;;5060384;28;20647;-65
2023/05/13 01:22:55;;;;;;;10.60;9.60;;;;;;;;;;5051812;28;20351;-63
2023/05/13 01:25:37;;;;;;;10.80;9.80;;;;;;;;;;5051152;28;20237;-64
2023/05/13 01:28:14;;;;;;;10.43;9.43;;;;;;;;;;5049566;28;20221;-65
2023/05/13 01:30:43;;;;;;;9.80;8.90;;;;;;;;;;5053204;28;20210;-64
2023/05/13 01:33:14;;;;;;;9.13;8.37;;;;;;;;;;5050189;28;20205;-64
2023/05/13 01:35:44;;;;;;;9.43;8.53;;;;;;;;;;5059961;28;20309;-64
2023/05/13 01:38:15;;;;;;;9.00;8.20;;;;;;;;;;5059064;28;20651;-64
2023/05/13 01:40:56;;;;;;;11.70;9.97;;;;;;;;;;5057810;28;20559;-64
2023/05/13 01:43:24;;;;;;;9.30;8.40;;;;;;;;;;5055420;28;20255;-64
2023/05/13 01:45:59;;;;;;;9.40;8.60;;;;;;;;;;5053446;28;20268;-65
2023/05/13 01:48:29;;;;;;;9.17;8.37;;;;;;;;;;5051971;28;20256;-63
2023/05/13 01:50:59;;;;;;;8.37;7.50;;;;;;;;;;5053607;28;20206;-64
2023/05/13 01:53:29;;;;;;;9.20;8.40;;;;;;;;;;5052994;28;20222;-64
2023/05/13 01:55:58;;;;;;;9.10;8.20;;;;;;;;;;5049005;28;20313;-64
2023/05/13 01:58:27;;;;;;;8.80;8.00;;;;;;;;;;5050673;28;20225;-64
2023/05/13 02:00:56;;;;;;;9.53;8.67;;;;;;;;;;5055497;28;20934;-64
2023/05/13 02:03:25;;;;;;;9.27;8.50;;;;;;;;;;5055045;28;20194;-64
2023/05/13 02:05:56;;;;;;;9.63;8.63;;;;;;;;;;5050336;28;20220;-64
2023/05/13 02:08:30;;;;;;;9.90;8.53;;;;;;;;;;5057017;28;20286;-64
2023/05/13 02:10:59;;;;;;;9.10;8.30;;;;;;;;;;5052746;28;20205;-64
2023/05/13 02:13:29;;;;;;;9.40;8.50;;;;;;;;;;5049131;28;20220;-64
2023/05/13 02:15:59;;;;;;;9.50;8.43;;;;;;;;;;5050773;28;20267;-63
2023/05/13 02:18:28;;;;;;;9.20;8.30;;;;;;;;;;5052974;28;20214;-64
2023/05/13 02:21:09;;;;;;;8.70;7.93;;;;;;;;;;5056139;28;20216;-64
2023/05/13 02:23:37;;;;;;;9.03;8.10;;;;;;;;;;5049916;28;20208;-64
2023/05/13 02:26:05;;;;;;;8.87;8.13;;;;;;;;;;5045828;28;20516;-66
2023/05/13 02:28:47;;;;;;;8.10;7.40;;;;;;;;;;5049542;28;20237;-64
2023/05/13 02:31:16;;;;;;;8.83;7.93;;;;;;;;;;5055536;28;20264;-62
2023/05/13 02:33:50;;;;;;;8.93;8.07;;;;;;;;;;5060532;28;20206;-64
2023/05/13 02:36:25;;;;;;;8.47;7.77;;;;;;;;;;5067961;28;20233;-63
2023/05/13 02:42:07;;;;;;;8.67;7.80;;;;;;;;;;5052121;28;20821;-64
2023/05/13 02:44:50;;;;;;;8.67;7.77;;;;;;;;;;5058856;28;20709;-64
2023/05/13 02:47:18;;;;;;;7.90;7.30;;;;;;;;;;5051324;28;20225;-65
2023/05/13 02:49:46;;;;;;;8.00;7.20;;;;;;;;;;5052532;28;20244;-65
2023/05/13 02:52:15;;;;;;;8.50;7.70;;;;;;;;;;5052436;28;20210;-65
2023/05/13 02:54:44;;;;;;;8.33;7.53;;;;;;;;;;5051588;28;20219;-64
2023/05/13 02:57:15;;;;;;;8.53;7.13;;;;;;;;;;5050948;28;20320;-63
2023/05/13 02:59:46;;;;;;;7.97;7.17;;;;;;;;;;5058657;28;20201;-63
2023/05/13 03:02:15;;;;;;;8.07;7.33;;;;;;;;;;5050176;28;20214;-64
2023/05/13 03:04:56;;;;;;;8.30;7.37;;;;;;;;;;5049471;28;20791;-65
2023/05/13 03:07:33;;;;;;;7.87;7.17;;;;;;;;;;5041563;28;20236;-65
2023/05/13 03:10:01;;;;;;;8.03;7.30;;;;;;;;;;5047302;28;20288;-64
2023/05/13 03:12:28;;;;;;;8.27;7.57;;;;;;;;;;5043591;28;20293;-64
2023/05/13 03:14:55;;;;;;;7.77;6.97;;;;;;;;;;5037966;28;20233;-66
2023/05/13 03:17:24;;;;;;;7.73;7.13;;;;;;;;;;5046070;28;20637;-66
2023/05/13 03:19:51;;;;;;;8.07;7.47;;;;;;;;;;5043774;28;20685;-66
2023/05/13 03:22:18;;;;;;;9.43;8.00;;;;;;;;;;5047070;28;20210;-63
2023/05/13 03:24:47;;;;;;;7.50;6.90;;;;;;;;;;5050818;28;20212;-64
2023/05/13 03:27:16;;;;;;;7.80;7.10;;;;;;;;;;5051238;28;20723;-65
2023/05/13 03:29:45;;;;;;;7.30;6.63;;;;;;;;;;5055848;28;20541;-65
2023/05/13 03:32:14;;;;;;;7.93;7.23;;;;;;;;;;5078849;28;20193;-65
2023/05/13 03:34:41;;;;;;;7.80;7.10;;;;;;;;;;5063342;28;20201;-64
2023/05/13 03:37:12;;;;;;;7.43;6.83;;;;;;;;;;5060915;28;20229;-63
2023/05/13 03:39:42;;;;;;;7.20;6.60;;;;;;;;;;5059775;28;20205;-65
2023/05/13 03:42:15;;;;;;;6.80;6.20;;;;;;;;;;5055525;28;20209;-65
2023/05/13 03:44:45;;;;;;;7.87;6.90;;;;;;;;;;5056592;28;20210;-65
2023/05/13 03:47:17;;;;;;;7.53;6.77;;;;;;;;;;5052556;28;20603;-65
2023/05/13 03:49:46;;;;;;;8.43;7.63;;;;;;;;;;5046807;28;20358;-65
2023/05/13 03:52:15;;;;;;;8.60;7.80;;;;;;;;;;5055232;28;20225;-64
2023/05/13 03:54:56;;;;;;;8.70;7.90;;;;;;;;;;5053481;28;20233;-63
2023/05/13 03:57:28;;;;;;;8.93;8.13;;;;;;;;;;5057056;28;20758;-64
2023/05/13 04:00:00;;;;;;;9.80;8.87;;;;;;;;;;5058747;28;20204;-63
2023/05/13 04:02:30;;;;;;;9.77;8.87;;;;;;;;;;5059923;28;20634;-64
2023/05/13 04:05:01;;;;;;;9.67;8.67;;;;;;;;;;5053944;28;20740;-63
2023/05/13 04:07:33;;;;;;;10.03;9.13;;;;;;;;;;5063300;28;20244;-63
2023/05/13 04:10:05;;;;;;;10.67;8.73;;;;;;;;;;5051545;28;20855;-65
2023/05/13 04:12:34;;;;;;;9.97;9.07;;;;;;;;;;5043600;28;20210;-66
2023/05/13 04:15:11;;;;;;;9.60;8.70;;;;;;;;;;5051095;28;20241;-66
2023/05/13 04:17:42;;;;;;;9.17;8.37;;;;;;;;;;5053680;28;20623;-65
2023/05/13 04:20:14;;;;;;;9.20;8.40;;;;;;;;;;5052712;28;20216;-63
2023/05/13 04:22:56;;;;;;;8.40;7.70;;;;;;;;;;5054610;28;20215;-65
2023/05/13 04:25:29;;;;;;;8.30;7.50;;;;;;;;;;5048779;28;20204;-65
2023/05/13 04:28:00;;;;;;;7.60;6.90;;;;;;;;;;5046077;28;20595;-65
2023/05/13 04:30:30;;;;;;;7.90;7.20;;;;;;;;;;5051535;28;20298;-64
2023/05/13 04:32:58;;;;;;;7.87;7.17;;;;;;;;;;5046623;28;20206;-64
2023/05/13 04:35:39;;;;;;;7.60;7.00;;;;;;;;;;5042758;28;20225;-64
2023/05/13 04:38:08;;;;;;;7.93;7.23;;;;;;;;;;5046480;28;20326;-65
2023/05/13 04:40:52;;;;;;;8.20;7.40;;;;;;;;;;5055851;28;20256;-64
2023/05/13 04:43:22;;;;;;;8.43;7.63;;;;;;;;;;5057064;28;20208;-64
2023/05/13 04:46:06;;;;;;;8.40;7.70;;;;;;;;;;5062241;28;20204;-63
2023/05/13 04:48:49;;;;;;;9.10;8.30;;;;;;;;;;5059324;28;20580;-64
2023/05/13 04:51:33;;;;;;;8.93;8.13;;;;;;;;;;5065315;28;20712;-64
2023/05/13 04:54:06;;;;;;;8.67;7.87;;;;;;;;;;5063675;28;20206;-64
2023/05/13 04:56:34;;;;;;;9.30;8.40;;;;;;;;;;5062533;28;20234;-64
2023/05/13 05:02:06;;;;;;;8.57;7.80;;;;;;;;;;5057245;28;20210;-65
2023/05/13 05:04:48;;;;;;;8.07;7.37;;;;;;;;;;5055047;28;20713;-65
2023/05/13 05:07:16;;;;;;;7.57;6.97;;;;;;;;;;5057385;28;20719;-65
2023/05/13 05:09:58;;;;;;;7.77;7.07;;;;;;;;;;5063509;28;20232;-64
2023/05/13 05:12:31;;;;;;;8.10;7.33;;;;;;;;;;5056079;28;20251;-64
2023/05/13 05:15:01;;;;;;;7.60;6.80;;;;;;;;;;5056811;28;21136;-66
2023/05/13 05:17:32;;;;;;;8.30;7.50;;;;;;;;;;5051330;28;20433;-64
2023/05/13 05:20:01;;;;;;;8.60;7.83;;;;;;;;;;5054444;28;20202;-64
2023/05/13 05:22:37;;;;;;;8.23;7.53;;;;;;;;;;5060087;28;20194;-63
2023/05/13 05:25:08;;;;;;;9.17;8.27;;;;;;;;;;5054721;28;20207;-63
2023/05/13 05:27:41;;;;;;;8.53;7.70;;;;;;;;;;5054563;28;20550;-64
2023/05/13 05:30:10;;;;;;;10.63;7.90;;;;;;;;;;5059178;28;20306;-63
2023/05/13 05:32:39;;;;;;;9.13;8.23;;;;;;;;;;5056581;28;20201;-65
2023/05/13 05:35:18;;;;;;;10.27;8.57;;;;;;;;;;5057557;28;20714;-64
2023/05/13 05:37:51;;;;;;;9.13;8.23;;;;;;;;;;5057640;28;20278;-64
2023/05/13 05:40:20;;;;;;;8.63;7.83;;;;;;;;;;5055440;28;20220;-63
2023/05/13 05:42:51;;;;;;;9.90;7.33;;;;;;;;;;5055620;28;20272;-65
2023/05/13 05:45:37;;;;;;;9.90;8.90;;;;;;;;;;5055009;28;20284;-65
2023/05/13 05:48:07;;;;;;;9.17;7.97;;;;;;;;;;5060285;28;20235;-63
2023/05/13 05:50:48;;;;;;;8.30;7.60;;;;;;;;;;5049888;28;20209;-63
2023/05/13 05:53:20;;;;;;;8.87;7.97;;;;;;;;;;5073507;28;20274;-65
2023/05/13 05:55:48;;;;;;;8.67;7.80;;;;;;;;;;5055436;28;20214;-64
2023/05/13 05:58:29;;;;;;;8.93;7.87;;;;;;;;;;5056879;28;20359;-63
2023/05/13 06:01:00;;;;;;;7.00;6.40;;;;;;;;;;5054643;28;22203;-64
2023/05/13 06:03:41;;;;;;;15.87;12.90;;;;;;;;;;5056435;28;20206;-64
2023/05/13 06:06:23;;;;;;;6.80;6.20;;;;;;;;;;5056211;28;20237;-63
2023/05/13 06:09:03;;;;;;;7.93;7.17;;;;;;;;;;5051491;28;20729;-64
2023/05/13 06:11:37;;;;;;;7.03;6.33;;;;;;;;;;5057958;28;20646;-66
2023/05/13 06:14:08;;;;;;;9.07;8.37;;;;;;;;;;5054028;28;20229;-65
2023/05/13 06:16:43;;;;;;;10.73;9.73;;;;;;;;;;5056889;28;20469;-66
2023/05/13 06:19:23;;;;;;;7.80;7.00;;;;;;;;;;5066293;28;20186;-65
2023/05/13 06:22:01;;;;;;;7.30;6.60;;;;;;;;;;5081296;28;20213;-68
2023/05/13 06:24:31;;;;;;;6.20;5.60;;;;;;;;;;5052795;28;20774;-64
2023/05/13 06:26:58;;;;;;;6.97;6.20;;;;;;;;;;5055994;28;20794;-64
2023/05/13 06:29:25;;;;;;;6.67;6.07;;;;;;;;;;5052431;28;20208;-64
2023/05/13 06:31:53;;;;;;;6.33;5.73;;;;;;;;;;5053064;28;20237;-64
2023/05/13 06:34:20;;;;;;;6.90;6.20;;;;;;;;;;5057575;28;20292;-63
2023/05/13 06:36:48;;;;;;;7.03;6.33;;;;;;;;;;5061872;28;20340;-63
2023/05/13 06:39:25;;;;;;;6.60;6.00;;;;;;;;;;5048575;28;20253;-63
2023/05/13 06:41:54;;;;;;;6.60;6.00;;;;;;;;;;5055425;28;20293;-62
2023/05/13 06:44:24;;;;;;;6.50;5.90;;;;;;;;;;5054258;28;20765;-64
2023/05/13 06:50:16;;;;;;;6.10;5.50;;;;;;;;;;5018882;28;20265;-62
2023/05/13 06:56:17;;;;;;;6.43;5.83;;;;;;;;;;5057968;28;20568;-62
2023/05/13 06:59:06;;;;;;;6.30;5.70;;;;;;;;;;5054768;28;20193;-64
2023/05/13 07:01:33;;;;;;;6.97;5.90;;;;;;;;;;5055904;28;20627;-65
2023/05/13 07:04:02;;;;;;;6.27;5.77;;;;;;;;;;5059242;28;20194;-63
2023/05/13 07:06:32;;;;;;;6.67;5.93;;;;;;;;;;5057199;28;20229;-64
2023/05/13 07:09:03;;;;;;;7.07;6.20;;;;;;;;;;5053172;28;20190;-65
2023/05/13 07:11:35;;;;;;;13.00;10.03;;;;;;;;;;5057537;28;20213;-63
2023/05/13 07:14:04;;;;;;;7.43;6.53;;;;;;;;;;5058656;28;20211;-64
2023/05/13 07:16:33;;;;;;;6.57;5.97;;;;;;;;;;5061313;28;20272;-64
2023/05/13 07:19:03;;;;;;;6.27;5.60;;;;;;;;;;5052075;28;21547;-66
2023/05/13 07:21:32;;;;;;;7.50;6.80;;;;;;;;;;5052307;28;20206;-65
2023/05/13 07:24:04;;;;;;;7.50;6.33;;;;;;;;;;5049978;28;20204;-63
2023/05/13 07:26:45;;;;;;;6.13;5.53;;;;;;;;;;5043780;28;21569;-64
2023/05/13 07:29:19;;;;;;;6.83;5.83;;;;;;;;;;5046665;28;20225;-65
2023/05/13 07:32:04;;;;;;;5.87;5.33;;;;;;;;;;5047595;28;20233;-63
2023/05/13 07:34:45;;;;;;;6.23;5.67;;;;;;;;;;5053363;28;20209;-64
2023/05/13 07:37:17;;;;;;;7.23;5.57;;;;;;;;;;5057999;28;20256;-65
2023/05/13 07:39:58;;;;;;;7.73;5.93;;;;;;;;;;5051218;28;20190;-63
2023/05/13 07:42:28;;;;;;;6.27;5.67;;;;;;;;;;5054180;28;20206;-65
2023/05/13 07:45:10;;;;;;;7.93;6.33;;;;;;;;;;5049898;28;20192;-64
2023/05/13 07:47:40;;;;;;;10.30;7.70;;;;;;;;;;5056895;28;20282;-65
2023/05/13 07:50:11;;;;;;;9.37;7.13;;;;;;;;;;5054980;28;20296;-65
2023/05/13 07:52:47;;;;;;;11.77;8.07;;;;;;;;;;5050008;28;20213;-63
2023/05/13 07:55:20;;;;;;;6.70;6.00;;;;;;;;;;5049170;28;20202;-65
2023/05/13 07:57:48;;;;;;;7.33;6.00;;;;;;;;;;5047083;28;20243;-64
2023/05/13 08:00:17;;;;;;;7.80;7.00;;;;;;;;;;5036413;28;20680;-64
2023/05/13 08:02:54;;;;;;;8.70;7.03;;;;;;;;;;5052782;28;20263;-65
2023/05/13 08:05:24;;;;;;;8.07;7.27;;;;;;;;;;5044746;28;20206;-64
2023/05/13 08:07:53;;;;;;;12.70;7.27;;;;;;;;;;5048124;28;20237;-65
2023/05/13 08:10:25;;;;;;;8.37;6.90;;;;;;;;;;5047451;28;20292;-63
2023/05/13 08:12:56;;;;;;;9.40;7.37;;;;;;;;;;5061592;28;20201;-66
2023/05/13 08:15:37;;;;;;;8.53;7.00;;;;;;;;;;5052438;28;20212;-63
2023/05/13 08:18:05;;;;;;;8.47;7.13;;;;;;;;;;5059807;28;20225;-64
2023/05/13 08:20:34;;;;;;;9.03;7.03;;;;;;;;;;5062503;28;20203;-64
2023/05/13 08:23:03;;;;;;;8.90;7.40;;;;;;;;;;5060516;28;20221;-64
2023/05/13 08:25:30;;;;;;;12.10;6.83;;;;;;;;;;5065461;28;20263;-65
2023/05/13 08:27:58;;;;;;;7.60;6.80;;;;;;;;;;5062920;28;20576;-64
2023/05/13 08:30:27;;;;;;;7.23;6.47;;;;;;;;;;5072963;28;20730;-63
2023/05/13 08:32:59;;;;;;;7.87;6.60;;;;;;;;;;5061865;28;20234;-64
2023/05/13 08:35:40;;;;;;;8.17;7.20;;;;;;;;;;5065887;28;20202;-64
2023/05/13 08:38:10;;;;;;;7.67;6.90;;;;;;;;;;5057490;28;20229;-64
2023/05/13 08:40:38;;;;;;;6.97;6.27;;;;;;;;;;5067099;28;20212;-64
2023/05/13 08:43:13;;;;;;;7.50;5.80;;;;;;;;;;5079332;28;20287;-64
2023/05/13 08:45:41;;;;;;;8.47;6.07;;;;;;;;;;5064947;28;20201;-64
2023/05/13 08:48:10;;;;;;;7.57;5.67;;;;;;;;;;5066714;28;20225;-64
2023/05/13 08:50:42;;;;;;;6.60;5.87;;;;;;;;;;5072715;28;20581;-63
2023/05/13 08:53:10;;;;;;;6.73;5.93;;;;;;;;;;5068700;28;20201;-63
2023/05/13 08:55:39;;;;;;;6.80;5.70;;;;;;;;;;5064685;28;20217;-65
2023/05/13 08:58:07;;;;;;;7.07;6.33;;;;;;;;;;5063697;28;20331;-64
2023/05/13 09:00:34;;;;;;;6.30;5.70;;;;;;;;;;5062865;28;20206;-65
2023/05/13 09:03:06;;;;;;;6.90;5.83;;;;;;;;;;5063291;28;20256;-63
2023/05/13 09:05:48;;;;;;;7.10;5.63;;;;;;;;;;5063738;28;20194;-65
2023/05/13 09:08:31;;;;;;;9.27;6.77;;;;;;;;;;5080773;28;20198;-65
2023/05/13 09:10:59;;;;;;;6.70;6.10;;;;;;;;;;5064441;28;20216;-63
2023/05/13 09:13:42;;;;;;;6.93;6.23;;;;;;;;;;5062508;28;20293;-64
2023/05/13 09:16:12;;;;;;;8.23;6.73;;;;;;;;;;5086538;28;20201;-64
2023/05/13 09:18:41;;;;;;;8.03;6.27;;;;;;;;;;5067107;28;20308;-64
2023/05/13 09:21:26;;;;;;;10.67;6.23;;;;;;;;;;5073730;28;20252;-64
2023/05/13 09:24:12;;;;;;;9.00;6.87;;;;;;;;;;5058756;28;20198;-64
2023/05/13 09:26:41;;;;;;;8.43;7.27;;;;;;;;;;5065500;28;20245;-64
2023/05/13 09:29:22;;;;;;;8.33;6.60;;;;;;;;;;5054830;28;20203;-63
2023/05/13 09:31:55;;;;;;;8.57;7.13;;;;;;;;;;5062339;28;20284;-65
2023/05/13 09:34:27;;;;;;;8.13;7.30;;;;;;;;;;5056620;28;20203;-65
2023/05/13 09:37:06;;;;;;;7.87;6.73;;;;;;;;;;5068816;28;20228;-64
2023/05/13 09:39:51;;;;;;;8.10;6.50;;;;;;;;;;5077718;28;20205;-64
2023/05/13 09:42:32;;;;;;;8.57;6.83;;;;;;;;;;5062920;28;20213;-65
2023/05/13 09:45:05;;;;;;;9.50;7.60;;;;;;;;;;5056031;28;20220;-65
2023/05/13 09:47:38;;;;;;;9.10;7.63;;;;;;;;;;5050129;28;20237;-64
2023/05/13 09:50:21;;;;;;;9.43;8.43;;;;;;;;;;5063459;28;20197;-65
2023/05/13 09:52:51;;;;;;;8.73;7.70;;;;;;;;;;5074906;28;20197;-63
2023/05/13 09:55:20;;;;;;;8.90;8.00;;;;;;;;;;5047324;28;20275;-65
2023/05/13 09:57:49;;;;;;;9.17;7.80;;;;;;;;;;5038781;28;20622;-64
2023/05/13 10:00:17;;;;;;;8.80;7.70;;;;;;;;;;5044010;28;20247;-64
2023/05/13 10:02:59;;;;;;;7.73;6.73;;;;;;;;;;5047048;28;20197;-65
2023/05/13 10:05:27;;;;;;;9.50;7.87;;;;;;;;;;5046443;28;20220;-65
2023/05/13 10:07:54;;;;;;;10.30;8.30;;;;;;;;;;5048740;28;21290;-65
2023/05/13 10:10:22;;;;;;;10.17;8.13;;;;;;;;;;5036065;28;20205;-63
2023/05/13 10:12:50;;;;;;;10.53;8.57;;;;;;;;;;5038543;28;20210;-63
2023/05/13 10:15:18;;;;;;;11.30;9.43;;;;;;;;;;5062232;28;20214;-64
2023/05/13 10:17:46;;;;;;;9.27;7.93;;;;;;;;;;5053387;28;20236;-65
2023/05/13 10:20:13;;;;;;;11.60;9.77;;;;;;;;;;5042187;28;20205;-63
2023/05/13 10:22:43;;;;;;;13.67;11.27;;;;;;;;;;5050485;28;20229;-64
2023/05/13 10:25:11;;;;;;;13.03;11.30;;;;;;;;;;5052879;28;20218;-63
2023/05/13 10:27:39;;;;;;;12.27;9.80;;;;;;;;;;5045702;28;20225;-63
2023/05/13 10:30:09;;;;;;;10.57;8.53;;;;;;;;;;5054547;28;20213;-64
2023/05/13 10:32:41;;;;;;;9.67;8.67;;;;;;;;;;5049479;28;20217;-64
2023/05/13 10:35:08;;;;;;;10.93;8.80;;;;;;;;;;5049639;28;20248;-63
2023/05/13 10:38:08;;;;;;;10.07;8.57;;;;;;;;;;5051907;28;20337;-63
2023/05/13 10:43:36;;;;;;;9.47;8.50;;;;;;;;;;5057392;28;20208;-63
2023/05/13 10:46:05;;;;;;;22.30;14.63;;;;;;;;;;5048593;28;20216;-63
2023/05/13 10:48:40;;;;;;;25.30;15.17;;;;;;;;;;5049639;28;20288;-63
2023/05/13 10:51:13;;;;;;;9.67;8.67;;;;;;;;;;5054236;28;20229;-65
2023/05/13 10:53:55;;;;;;;8.57;7.63;;;;;;;;;;5056452;28;20309;-65
2023/05/13 10:56:28;;;;;;;10.57;9.00;;;;;;;;;;5059443;28;20685;-63
2023/05/13 10:59:11;;;;;;;12.03;9.93;;;;;;;;;;5060214;28;20308;-64
2023/05/13 11:01:42;;;;;;;9.80;8.80;;;;;;;;;;5054569;28;20284;-65
2023/05/13 11:04:17;;;;;;;9.27;8.13;;;;;;;;;;5046381;28;20213;-63
2023/05/13 11:06:50;;;;;;;8.60;7.80;;;;;;;;;;5050173;28;20249;-65
2023/05/13 11:09:24;;;;;;;9.30;8.40;;;;;;;;;;5051588;28;21036;-65
2023/05/13 11:12:07;;;;;;;9.23;8.33;;;;;;;;;;5046740;28;20212;-65
2023/05/13 11:14:36;;;;;;;9.17;8.03;;;;;;;;;;5049433;28;20209;-64
2023/05/13 11:17:05;;;;;;;8.73;7.93;;;;;;;;;;5055365;28;20278;-65
2023/05/13 11:19:36;;;;;;;8.93;8.13;;;;;;;;;;5045896;28;20233;-64
2023/05/13 11:22:24;;;;;;;9.90;8.93;;;;;;;;;;5042645;28;21461;-64
2023/05/13 11:25:05;;;;;;;9.93;8.50;;;;;;;;;;5043687;28;20252;-64
2023/05/13 11:27:37;;;;;;;10.73;9.63;;;;;;;;;;5044631;28;20500;-63
2023/05/13 11:30:22;;;;;;;9.37;8.33;;;;;;;;;;5043821;28;20205;-63
2023/05/13 11:32:54;;;;;;;8.70;7.90;;;;;;;;;;5050578;28;20716;-63
2023/05/13 11:35:24;;;;;;;9.03;8.13;;;;;;;;;;5040858;28;20208;-64
2023/05/13 11:37:51;;;;;;;9.53;8.67;;;;;;;;;;5043343;28;20564;-65
2023/05/13 11:40:34;;;;;;;9.30;8.50;;;;;;;;;;5050699;28;20318;-65
2023/05/13 11:43:09;;;;;;;9.60;8.70;;;;;;;;;;5050461;28;20390;-64
2023/05/13 11:45:39;;;;;;;9.90;8.97;;;;;;;;;;5047812;28;20445;-64
2023/05/13 11:48:22;;;;;;;10.30;9.30;;;;;;;;;;5052648;28;20594;-64
2023/05/13 11:50:52;;;;;;;10.97;9.97;;;;;;;;;;5063885;28;20202;-64
2023/05/13 11:53:22;;;;;;;12.97;11.03;;;;;;;;;;5065107;28;20279;-64
2023/05/13 11:55:54;;;;;;;10.40;9.40;;;;;;;;;;5076159;28;20214;-64
2023/05/13 11:58:36;;;;;;;11.37;10.27;;;;;;;;;;5056179;28;20263;-65
2023/05/13 12:01:17;;;;;;;10.67;9.57;;;;;;;;;;5041309;28;23383;-63
2023/05/13 12:03:47;;;;;;;10.67;9.57;;;;;;;;;;5050572;28;20195;-64
2023/05/13 12:06:22;;;;;;;10.17;9.07;;;;;;;;;;5054523;28;20544;-66
2023/05/13 12:09:04;;;;;;;9.50;8.70;;;;;;;;;;5049014;28;20209;-65
2023/05/13 12:11:37;;;;;;;11.17;10.07;;;;;;;;;;5052047;28;20206;-65
2023/05/13 12:14:19;;;;;;;8.83;8.03;;;;;;;;;;5057507;28;20277;-65
2023/05/13 12:17:02;;;;;;;9.90;9.00;;;;;;;;;;5065375;28;20253;-64
2023/05/13 12:19:32;;;;;;;10.23;9.23;;;;;;;;;;5056219;28;20232;-64
2023/05/13 12:22:02;;;;;;;8.93;8.20;;;;;;;;;;5049229;28;20217;-64
2023/05/13 12:24:33;;;;;;;10.77;9.67;;;;;;;;;;5049101;28;20205;-65
2023/05/13 12:27:06;;;;;;;10.13;9.13;;;;;;;;;;5047023;28;20372;-63
2023/05/13 12:29:41;;;;;;;10.60;9.50;;;;;;;;;;5056713;28;20760;-64
2023/05/13 12:32:16;;;;;;;10.47;9.40;;;;;;;;;;5049221;28;20220;-64
2023/05/13 12:34:49;;;;;;;13.10;11.70;;;;;;;;;;5048669;28;20293;-64
2023/05/13 12:37:25;;;;;;;9.77;8.90;;;;;;;;;;5054668;28;20334;-65
2023/05/13 12:40:08;;;;;;;11.87;10.33;;;;;;;;;;5049397;28;20202;-63
2023/05/13 12:42:49;;;;;;;16.80;13.50;;;;;;;;;;5046877;28;20242;-64
2023/05/13 12:45:32;;;;;;;10.27;9.37;;;;;;;;;;5054081;28;20199;-64
2023/05/13 12:48:13;;;;;;;10.90;9.90;;;;;;;;;;5052215;28;20229;-64
2023/05/13 12:50:43;;;;;;;11.90;10.70;;;;;;;;;;5067085;28;20198;-64
2023/05/13 12:53:21;;;;;;;12.53;10.93;;;;;;;;;;5068046;28;20440;-65
2023/05/13 12:55:51;;;;;;;12.80;11.30;;;;;;;;;;5069416;28;20302;-64
2023/05/13 12:58:32;;;;;;;14.13;11.50;;;;;;;;;;5047851;28;20245;-65
2023/05/13 13:01:03;;;;;;;12.77;11.47;;;;;;;;;;5059699;28;20193;-65
2023/05/13 13:03:45;;;;;;;13.67;12.20;;;;;;;;;;5048770;28;20372;-65
2023/05/13 13:06:26;;;;;;;16.23;13.53;;;;;;;;;;5051122;28;20201;-65
2023/05/13 13:08:55;;;;;;;14.53;12.93;;;;;;;;;;5049733;28;20213;-65
2023/05/13 13:11:24;;;;;;;16.20;14.50;;;;;;;;;;5046312;28;20202;-65
2023/05/13 13:13:53;;;;;;;15.47;13.60;;;;;;;;;;5049130;28;20210;-65
2023/05/13 13:16:34;;;;;;;14.97;12.53;;;;;;;;;;5054398;28;20245;-64
2023/05/13 13:19:15;;;;;;;13.57;12.17;;;;;;;;;;5045188;28;20278;-64
2023/05/13 13:21:45;;;;;;;14.50;13.13;;;;;;;;;;5048808;28;20213;-65
2023/05/13 13:24:14;;;;;;;14.10;12.70;;;;;;;;;;5051105;28;20214;-65
2023/05/13 13:26:52;;;;;;;14.47;12.70;;;;;;;;;;5046734;28;20227;-65
2023/05/13 13:29:23;;;;;;;13.33;12.10;;;;;;;;;;5052009;28;20206;-64
2023/05/13 13:31:54;;;;;;;13.80;12.40;;;;;;;;;;5057260;28;20519;-65
2023/05/13 13:34:30;;;;;;;14.17;12.77;;;;;;;;;;5046023;28;20201;-65
2023/05/13 13:37:05;;;;;;;17.63;14.20;;;;;;;;;;5049057;28;20237;-64
2023/05/13 13:39:42;;;;;;;15.30;13.70;;;;;;;;;;5048591;28;20709;-65
2023/05/13 13:42:13;;;;;;;16.73;14.93;;;;;;;;;;5050263;28;20217;-65
2023/05/13 13:44:43;;;;;;;15.37;12.67;;;;;;;;;;5065952;28;20255;-65
2023/05/13 13:47:24;;;;;;;15.40;13.27;;;;;;;;;;5065034;28;20691;-65
2023/05/13 13:49:57;;;;;;;11.80;10.70;;;;;;;;;;5065570;28;20227;-64
2023/05/13 13:52:38;;;;;;;13.17;11.87;;;;;;;;;;5066697;28;20214;-64
2023/05/13 13:55:08;;;;;;;13.23;11.93;;;;;;;;;;5071588;28;20288;-65
2023/05/13 13:57:38;;;;;;;14.50;13.10;;;;;;;;;;5066809;28;20229;-65
2023/05/13 14:00:08;;;;;;;12.90;11.70;;;;;;;;;;5072077;28;20627;-64
2023/05/13 14:02:49;;;;;;;11.37;10.37;;;;;;;;;;5051074;28;20198;-65
2023/05/13 14:05:29;;;;;;;11.47;10.27;;;;;;;;;;5041539;28;21164;-63
2023/05/13 14:08:11;;;;;;;10.80;9.80;;;;;;;;;;5041458;28;20241;-64
2023/05/13 14:10:39;;;;;;;10.73;9.73;;;;;;;;;;5032230;28;20248;-64
2023/05/13 14:13:07;;;;;;;10.57;9.57;;;;;;;;;;5034066;28;20274;-63
2023/05/13 14:15:37;;;;;;;10.60;9.50;;;;;;;;;;5029232;28;20213;-64
2023/05/13 14:18:07;;;;;;;9.90;9.10;;;;;;;;;;5040862;28;20334;-63
2023/05/13 14:20:37;;;;;;;11.43;10.33;;;;;;;;;;5020232;28;20209;-65
2023/05/13 14:23:08;;;;;;;10.83;9.73;;;;;;;;;;5033187;28;20282;-62
2023/05/13 14:25:35;;;;;;;11.70;10.60;;;;;;;;;;5034500;28;21384;-64
2023/05/13 14:28:07;;;;;;;10.77;9.77;;;;;;;;;;5031514;28;20928;-64
2023/05/13 14:30:35;;;;;;;10.83;9.93;;;;;;;;;;5040725;28;20229;-63
2023/05/13 14:33:02;;;;;;;11.27;10.27;;;;;;;;;;5027765;28;20307;-64
2023/05/13 14:35:30;;;;;;;10.70;9.77;;;;;;;;;;5027737;28;20217;-63
2023/05/13 14:37:57;;;;;;;11.27;10.17;;;;;;;;;;5032062;28;20270;-65
2023/05/13 14:40:25;;;;;;;12.23;11.13;;;;;;;;;;5040237;28;20205;-65
2023/05/13 14:43:03;;;;;;;11.50;10.40;;;;;;;;;;5058666;28;20198;-64
2023/05/13 14:45:30;;;;;;;12.10;10.43;;;;;;;;;;5036362;28;20190;-65
2023/05/13 14:47:58;;;;;;;12.23;11.13;;;;;;;;;;5032907;28;20244;-64
2023/05/13 14:50:25;;;;;;;13.73;12.37;;;;;;;;;;5024974;28;20202;-64
2023/05/13 14:52:54;;;;;;;13.20;12.00;;;;;;;;;;5029031;28;20239;-64
2023/05/13 14:55:35;;;;;;;12.80;11.53;;;;;;;;;;5032945;28;20209;-64
2023/05/13 14:58:02;;;;;;;12.17;11.17;;;;;;;;;;5032022;28;20431;-64
2023/05/13 15:00:31;;;;;;;12.07;10.97;;;;;;;;;;5019719;28;21620;-64
2023/05/13 15:02:59;;;;;;;12.33;11.13;;;;;;;;;;5015470;28;20197;-64
2023/05/13 15:05:26;;;;;;;13.60;12.20;;;;;;;;;;5013576;28;20206;-64
2023/05/13 15:07:54;;;;;;;11.17;10.17;;;;;;;;;;5021766;28;20386;-64
2023/05/13 15:10:21;;;;;;;13.47;12.17;;;;;;;;;;5040973;28;20264;-65
2023/05/13 15:12:49;;;;;;;11.43;10.33;;;;;;;;;;5031854;28;20236;-64
2023/05/13 15:15:17;;;;;;;11.47;10.37;;;;;;;;;;5030693;28;20778;-64
2023/05/13 15:17:44;;;;;;;10.43;9.53;;;;;;;;;;5032338;28;20225;-64
2023/05/13 15:20:12;;;;;;;10.17;9.37;;;;;;;;;;5037825;28;20620;-64
2023/05/13 15:22:40;;;;;;;10.00;9.20;;;;;;;;;;5025955;28;20198;-64